createdAt,value
2023-12-29T00:00:38.050Z,60.65
2023-12-29T00:01:38.105Z,61.24
2023-12-29T00:02:38.036Z,60.67
2023-12-29T00:03:38.087Z,60.18
2023-12-29T00:04:38.005Z,60.66
2023-12-29T00:05:38.004Z,59.84
2023-12-29T00:06:46.152Z,59.91
2023-12-29T00:07:39.076Z,59.92
2023-12-29T00:08:38.008Z,60.01
2023-12-29T00:09:38.022Z,60.82
2023-12-29T00:10:38.010Z,61.03
2023-12-29T00:11:38.003Z,61.90
2023-12-29T00:12:38.027Z,59.72
2023-12-29T00:13:37.990Z,60.64
2023-12-29T00:14:38.017Z,60.24
2023-12-29T00:15:38.045Z,61.14
2023-12-29T00:16:38.033Z,61.54
2023-12-29T00:17:38.083Z,62.01
2023-12-29T00:18:38.100Z,59.59
2023-12-29T00:19:38.107Z,58.10
2023-12-29T00:20:41.644Z,60.31
2023-12-29T00:21:38.025Z,60.31
2023-12-29T00:22:38.032Z,59.67
2023-12-29T00:23:38.030Z,60.76
2023-12-29T00:24:38.036Z,60.38
2023-12-29T00:25:38.072Z,58.96
2023-12-29T00:26:38.036Z,62.25
2023-12-29T00:27:38.200Z,61.22
2023-12-29T00:28:38.040Z,59.36
2023-12-29T00:29:38.036Z,58.35
2023-12-29T00:30:48.076Z,59.84
2023-12-29T00:31:39.126Z,59.88
2023-12-29T00:32:38.064Z,60.26
2023-12-29T00:33:38.166Z,60.40
2023-12-29T00:34:38.080Z,58.78
2023-12-29T00:35:38.054Z,60.42
2023-12-29T00:36:38.086Z,61.48
2023-12-29T00:37:38.057Z,58.00
2023-12-29T00:38:38.087Z,60.60
2023-12-29T00:39:38.053Z,61.60
2023-12-29T00:40:38.064Z,61.66
2023-12-29T00:41:38.211Z,58.21
2023-12-29T00:42:38.197Z,60.29
2023-12-29T00:43:38.060Z,58.03
2023-12-29T00:44:38.078Z,59.60
2023-12-29T00:45:38.126Z,60.29
2023-12-29T00:46:38.100Z,59.27
2023-12-29T00:47:38.190Z,60.21
2023-12-29T00:48:38.322Z,61.03
2023-12-29T00:49:38.260Z,59.93
2023-12-29T00:50:38.225Z,62.02
2023-12-29T00:51:38.295Z,57.87
2023-12-29T00:52:38.304Z,60.00
2023-12-29T00:53:38.327Z,58.28
2023-12-29T00:54:38.420Z,62.11
2023-12-29T00:55:38.391Z,59.31
2023-12-29T00:56:38.434Z,57.20
2023-12-29T00:57:38.498Z,58.81
2023-12-29T00:58:38.503Z,61.33
2023-12-29T00:59:38.535Z,61.12
2023-12-29T01:00:38.690Z,59.79
2023-12-29T01:01:38.745Z,59.69
2023-12-29T01:02:38.651Z,58.23
2023-12-29T01:03:38.753Z,58.43
2023-12-29T01:04:38.889Z,60.44
2023-12-29T01:05:38.822Z,61.61
2023-12-29T01:06:38.815Z,59.73
2023-12-29T01:07:38.861Z,58.49
2023-12-29T01:08:38.871Z,60.65
2023-12-29T01:09:39.000Z,60.32
2023-12-29T01:10:38.960Z,58.45
2023-12-29T01:11:38.998Z,57.48
2023-12-29T01:12:39.085Z,61.99
2023-12-29T01:13:39.105Z,59.35
2023-12-29T01:14:39.140Z,60.46
2023-12-29T01:15:39.195Z,61.35
2023-12-29T01:16:39.238Z,57.86
2023-12-29T01:17:39.335Z,57.78
2023-12-29T01:18:39.433Z,57.97
2023-12-29T01:19:39.426Z,58.90
2023-12-29T01:20:39.387Z,55.47
2023-12-29T01:21:39.459Z,58.80
2023-12-29T01:22:39.497Z,58.64
2023-12-29T01:23:39.499Z,59.27
2023-12-29T01:24:45.559Z,56.04
2023-12-29T01:25:40.564Z,56.09
2023-12-29T01:26:39.751Z,56.85
2023-12-29T01:27:39.575Z,57.24
2023-12-29T01:28:39.865Z,57.64
2023-12-29T01:29:41.034Z,57.65
2023-12-29T01:30:39.712Z,58.14
2023-12-29T01:31:39.581Z,58.41
2023-12-29T01:32:39.612Z,59.27
2023-12-29T01:33:39.638Z,57.37
2023-12-29T01:34:39.765Z,58.87
2023-12-29T01:35:39.550Z,59.41
2023-12-29T01:36:39.570Z,59.17
2023-12-29T01:37:39.582Z,56.18
2023-12-29T01:38:39.617Z,59.24
2023-12-29T01:39:39.716Z,59.59
2023-12-29T01:40:39.776Z,56.69
2023-12-29T01:41:39.748Z,55.56
2023-12-29T01:42:39.860Z,56.79
2023-12-29T01:43:39.802Z,57.28
2023-12-29T01:44:39.925Z,58.39
2023-12-29T01:45:48.915Z,58.38
2023-12-29T01:46:40.905Z,57.89
2023-12-29T01:47:39.905Z,56.62
2023-12-29T01:48:40.011Z,57.59
2023-12-29T01:49:39.996Z,57.42
2023-12-29T01:50:39.894Z,57.63
2023-12-29T01:51:39.925Z,57.88
2023-12-29T01:52:39.897Z,58.59
2023-12-29T01:53:45.684Z,54.17
2023-12-29T01:54:40.907Z,54.22
2023-12-29T01:55:39.895Z,55.06
2023-12-29T01:56:39.910Z,55.74
2023-12-29T01:57:39.978Z,56.64
2023-12-29T01:58:39.908Z,57.26
2023-12-29T01:59:39.918Z,57.59
2023-12-29T02:00:39.956Z,54.90
2023-12-29T02:01:39.978Z,58.21
2023-12-29T02:02:39.920Z,55.02
2023-12-29T02:03:40.016Z,56.47
2023-12-29T02:04:39.991Z,56.15
2023-12-29T02:05:39.984Z,54.80
2023-12-29T02:06:39.989Z,54.50
2023-12-29T02:07:39.971Z,54.93
2023-12-29T02:08:40.071Z,55.48
2023-12-29T02:09:40.129Z,55.88
2023-12-29T02:10:40.084Z,54.90
2023-12-29T02:11:40.134Z,56.08
2023-12-29T02:12:40.200Z,56.78
2023-12-29T02:13:40.223Z,56.97
2023-12-29T02:14:40.346Z,55.59
2023-12-29T02:15:40.345Z,54.61
2023-12-29T02:16:40.362Z,55.62
2023-12-29T02:17:40.468Z,55.80
2023-12-29T02:18:40.501Z,54.58
2023-12-29T02:19:41.222Z,57.55
2023-12-29T02:20:40.557Z,55.13
2023-12-29T02:21:40.666Z,55.95
2023-12-29T02:22:40.659Z,56.74
2023-12-29T02:23:40.753Z,55.14
2023-12-29T02:24:41.045Z,53.68
2023-12-29T02:25:40.805Z,56.30
2023-12-29T02:26:40.868Z,55.90
2023-12-29T02:27:40.931Z,55.64
2023-12-29T02:28:41.109Z,56.50
2023-12-29T02:29:41.041Z,55.90
2023-12-29T02:30:41.129Z,56.53
2023-12-29T02:31:41.161Z,53.52
2023-12-29T02:32:41.282Z,54.09
2023-12-29T02:33:41.547Z,56.21
2023-12-29T02:34:41.408Z,55.41
2023-12-29T02:35:41.355Z,55.52
2023-12-29T02:36:41.421Z,54.08
2023-12-29T02:37:41.430Z,53.38
2023-12-29T02:38:41.457Z,55.84
2023-12-29T02:39:41.542Z,51.62
2023-12-29T02:40:41.568Z,52.62
2023-12-29T02:41:41.607Z,53.81
2023-12-29T02:42:41.733Z,55.74
2023-12-29T02:43:41.664Z,54.20
2023-12-29T02:44:41.712Z,53.51
2023-12-29T02:45:41.785Z,54.64
2023-12-29T02:46:41.804Z,53.50
2023-12-29T02:47:41.916Z,57.08
2023-12-29T02:48:42.009Z,53.38
2023-12-29T02:49:41.997Z,55.04
2023-12-29T02:50:41.997Z,52.09
2023-12-29T02:51:42.101Z,55.70
2023-12-29T02:52:42.135Z,54.16
2023-12-29T02:53:42.143Z,54.12
2023-12-29T02:54:42.178Z,54.77
2023-12-29T02:55:42.209Z,53.25
2023-12-29T02:56:42.254Z,54.16
2023-12-29T02:57:42.339Z,54.09
2023-12-29T02:58:42.329Z,52.11
2023-12-29T02:59:42.389Z,54.69
2023-12-29T03:00:42.530Z,51.99
2023-12-29T03:01:42.502Z,53.34
2023-12-29T03:02:42.495Z,55.10
2023-12-29T03:03:42.620Z,54.70
2023-12-29T03:04:42.564Z,51.99
2023-12-29T03:05:42.630Z,51.33
2023-12-29T03:06:42.666Z,52.93
2023-12-29T03:07:42.708Z,52.70
2023-12-29T03:08:42.736Z,54.77
2023-12-29T03:09:42.793Z,53.93
2023-12-29T03:10:42.824Z,54.82
2023-12-29T03:11:42.842Z,53.48
2023-12-29T03:12:42.980Z,54.78
2023-12-29T03:13:42.902Z,52.17
2023-12-29T03:14:42.955Z,53.07
2023-12-29T03:15:43.027Z,50.91
2023-12-29T03:16:43.056Z,53.36
2023-12-29T03:17:43.125Z,53.13
2023-12-29T03:18:43.365Z,55.73
2023-12-29T03:19:43.262Z,52.57
2023-12-29T03:20:43.229Z,53.62
2023-12-29T03:21:43.304Z,52.69
2023-12-29T03:22:43.334Z,52.70
2023-12-29T03:23:43.384Z,51.27
2023-12-29T03:24:43.496Z,53.48
2023-12-29T03:25:43.501Z,54.47
2023-12-29T03:26:43.557Z,53.03
2023-12-29T03:27:43.677Z,52.00
2023-12-29T03:28:43.626Z,54.17
2023-12-29T03:29:43.759Z,55.36
2023-12-29T03:30:43.778Z,54.30
2023-12-29T03:31:43.857Z,55.49
2023-12-29T03:32:43.840Z,53.98
2023-12-29T03:33:43.948Z,54.79
2023-12-29T03:34:44.002Z,52.33
2023-12-29T03:35:44.048Z,53.91
2023-12-29T03:36:44.111Z,53.41
2023-12-29T03:37:44.066Z,53.70
2023-12-29T03:38:44.117Z,55.27
2023-12-29T03:39:44.192Z,53.45
2023-12-29T03:40:44.219Z,53.54
2023-12-29T03:41:44.260Z,54.03
2023-12-29T03:42:44.373Z,54.52
2023-12-29T03:43:44.475Z,52.95
2023-12-29T03:44:44.436Z,51.36
2023-12-29T03:45:44.541Z,53.84
2023-12-29T03:46:44.491Z,53.01
2023-12-29T03:47:44.614Z,54.09
2023-12-29T03:48:44.744Z,54.80
2023-12-29T03:49:44.695Z,55.18
2023-12-29T03:50:44.702Z,52.58
2023-12-29T03:51:44.763Z,55.74
2023-12-29T03:52:44.810Z,54.18
2023-12-29T03:53:44.846Z,52.74
2023-12-29T03:54:44.904Z,54.78
2023-12-29T03:55:44.891Z,54.32
2023-12-29T03:56:44.941Z,52.87
2023-12-29T03:57:45.028Z,53.70
2023-12-29T03:58:45.020Z,56.45
2023-12-29T03:59:45.070Z,54.81
2023-12-29T04:00:45.204Z,54.06
2023-12-29T04:01:45.275Z,54.48
2023-12-29T04:02:45.273Z,54.66
2023-12-29T04:03:45.547Z,54.35
2023-12-29T04:04:45.506Z,50.90
2023-12-29T04:05:45.389Z,54.12
2023-12-29T04:06:45.484Z,53.81
2023-12-29T04:07:45.509Z,51.72
2023-12-29T04:08:45.593Z,53.10
2023-12-29T04:09:45.638Z,53.60
2023-12-29T04:10:45.683Z,53.10
2023-12-29T04:11:45.690Z,51.81
2023-12-29T04:12:45.824Z,52.95
2023-12-29T04:13:45.781Z,54.71
2023-12-29T04:14:45.827Z,54.84
2023-12-29T04:15:45.934Z,51.51
2023-12-29T04:16:45.936Z,53.77
2023-12-29T04:17:46.057Z,53.56
2023-12-29T04:18:46.128Z,55.51
2023-12-29T04:19:46.162Z,51.71
2023-12-29T04:20:46.115Z,56.27
2023-12-29T04:21:46.211Z,54.95
2023-12-29T04:22:46.301Z,54.80
2023-12-29T04:23:46.254Z,51.33
2023-12-29T04:24:46.338Z,53.04
2023-12-29T04:25:46.352Z,52.93
2023-12-29T04:26:46.421Z,52.71
2023-12-29T04:27:46.546Z,53.21
2023-12-29T04:28:46.492Z,54.97
2023-12-29T04:29:46.546Z,55.88
2023-12-29T04:30:46.756Z,55.19
2023-12-29T04:31:46.684Z,54.39
2023-12-29T04:32:46.759Z,52.43
2023-12-29T04:33:46.850Z,53.48
2023-12-29T04:34:46.908Z,54.67
2023-12-29T04:35:46.874Z,53.91
2023-12-29T04:36:46.929Z,54.29
2023-12-29T04:37:46.974Z,53.47
2023-12-29T04:38:47.013Z,53.33
2023-12-29T04:39:47.107Z,54.22
2023-12-29T04:40:47.135Z,53.04
2023-12-29T04:41:47.173Z,53.67
2023-12-29T04:42:47.259Z,53.42
2023-12-29T04:43:47.279Z,53.65
2023-12-29T04:44:47.331Z,52.55
2023-12-29T04:45:47.394Z,53.54
2023-12-29T04:46:47.431Z,51.87
2023-12-29T04:47:47.533Z,54.80
2023-12-29T04:48:47.619Z,52.51
2023-12-29T04:49:47.713Z,52.98
2023-12-29T04:50:47.629Z,53.07
2023-12-29T04:51:47.758Z,53.58
2023-12-29T04:52:47.753Z,52.88
2023-12-29T04:53:47.805Z,50.84
2023-12-29T04:54:49.164Z,51.30
2023-12-29T04:55:47.899Z,54.61
2023-12-29T04:56:47.947Z,53.21
2023-12-29T04:57:48.088Z,54.87
2023-12-29T04:58:55.520Z,50.00
2023-12-29T04:59:55.490Z,50.00
2023-12-29T05:00:55.502Z,50.00
2023-12-29T05:01:55.622Z,50.00
2023-12-29T05:02:55.511Z,50.00
2023-12-29T05:03:55.602Z,51.39
2023-12-29T05:04:55.707Z,51.90
2023-12-29T05:05:55.506Z,53.21
2023-12-29T05:06:55.534Z,52.32
2023-12-29T05:07:55.535Z,51.45
2023-12-29T05:08:55.500Z,53.46
2023-12-29T05:09:55.539Z,54.03
2023-12-29T05:10:55.496Z,52.70
2023-12-29T05:11:55.508Z,52.61
2023-12-29T05:12:55.542Z,51.78
2023-12-29T05:13:55.500Z,51.27
2023-12-29T05:14:55.505Z,53.61
2023-12-29T05:15:55.551Z,54.00
2023-12-29T05:16:55.502Z,51.37
2023-12-29T05:17:55.613Z,53.27
2023-12-29T05:18:55.632Z,52.58
2023-12-29T05:19:55.685Z,51.20
2023-12-29T05:20:55.513Z,55.48
2023-12-29T05:21:55.593Z,56.45
2023-12-29T05:22:55.559Z,54.56
2023-12-29T05:23:55.531Z,53.65
2023-12-29T05:24:55.600Z,56.25
2023-12-29T05:25:55.541Z,55.02
2023-12-29T05:26:55.528Z,53.39
2023-12-29T05:27:55.663Z,54.95
2023-12-29T05:28:55.689Z,54.24
2023-12-29T05:29:55.689Z,54.76
2023-12-29T05:30:55.798Z,53.57
2023-12-29T05:31:55.831Z,54.33
2023-12-29T05:32:55.991Z,53.62
2023-12-29T05:33:55.932Z,53.72
2023-12-29T05:34:55.968Z,54.67
2023-12-29T05:35:55.967Z,54.38
2023-12-29T05:36:56.059Z,54.10
2023-12-29T05:37:56.092Z,54.94
2023-12-29T05:38:56.115Z,51.26
2023-12-29T05:39:56.210Z,55.23
2023-12-29T05:40:56.209Z,55.34
2023-12-29T05:41:56.257Z,54.18
2023-12-29T05:42:56.433Z,55.74
2023-12-29T05:43:56.378Z,55.17
2023-12-29T05:44:56.422Z,54.68
2023-12-29T05:45:56.563Z,56.45
2023-12-29T05:46:56.534Z,54.53
2023-12-29T05:47:56.626Z,57.46
2023-12-29T05:48:56.709Z,54.94
2023-12-29T05:49:56.780Z,55.31
2023-12-29T05:50:56.732Z,56.34
2023-12-29T05:51:56.804Z,54.06
2023-12-29T05:52:56.857Z,51.83
2023-12-29T05:53:56.894Z,51.89
2023-12-29T05:54:56.971Z,53.72
2023-12-29T05:55:57.011Z,53.52
2023-12-29T05:56:57.048Z,54.13
2023-12-29T05:57:57.467Z,55.56
2023-12-29T05:58:57.138Z,57.59
2023-12-29T05:59:57.187Z,53.63
2023-12-29T06:00:57.256Z,51.42
2023-12-29T06:01:57.456Z,54.17
2023-12-29T06:02:57.386Z,54.90
2023-12-29T06:03:57.435Z,55.01
2023-12-29T06:04:57.472Z,53.17
2023-12-29T06:05:57.525Z,55.83
2023-12-29T06:06:57.584Z,57.57
2023-12-29T06:07:57.992Z,52.79
2023-12-29T06:08:57.678Z,51.73
2023-12-29T06:09:57.752Z,54.03
2023-12-29T06:10:57.796Z,52.58
2023-12-29T06:11:57.846Z,52.89
2023-12-29T06:12:57.906Z,54.59
2023-12-29T06:13:57.940Z,54.86
2023-12-29T06:14:58.010Z,55.12
2023-12-29T06:15:58.081Z,53.77
2023-12-29T06:16:58.099Z,54.33
2023-12-29T06:17:58.628Z,52.90
2023-12-29T06:18:58.324Z,53.84
2023-12-29T06:19:58.289Z,53.60
2023-12-29T06:20:58.341Z,53.96
2023-12-29T06:21:58.428Z,52.07
2023-12-29T06:22:58.686Z,53.72
2023-12-29T06:23:58.496Z,52.01
2023-12-29T06:24:58.561Z,54.20
2023-12-29T06:25:58.613Z,52.53
2023-12-29T06:26:58.683Z,53.85
2023-12-29T06:27:59.064Z,52.56
2023-12-29T06:28:58.803Z,55.88
2023-12-29T06:29:58.860Z,55.04
2023-12-29T06:30:58.963Z,53.74
2023-12-29T06:31:58.966Z,52.46
2023-12-29T06:32:59.139Z,53.66
2023-12-29T06:33:59.124Z,53.60
2023-12-29T06:34:59.120Z,53.43
2023-12-29T06:35:59.165Z,50.58
2023-12-29T06:36:59.241Z,52.30
2023-12-29T06:37:59.547Z,51.09
2023-12-29T06:38:59.330Z,53.55
2023-12-29T06:39:59.493Z,54.32
2023-12-29T06:40:59.433Z,51.11
2023-12-29T06:41:59.504Z,54.50
2023-12-29T06:42:59.594Z,55.39
2023-12-29T06:43:59.577Z,53.88
2023-12-29T06:44:59.633Z,52.91
2023-12-29T06:45:59.711Z,54.46
2023-12-29T06:46:59.758Z,53.01
2023-12-29T06:48:00.062Z,54.33
2023-12-29T06:48:59.963Z,54.51
2023-12-29T06:50:00.026Z,54.22
2023-12-29T06:50:59.988Z,54.34
2023-12-29T06:52:00.065Z,54.17
2023-12-29T06:53:00.073Z,51.41
2023-12-29T06:54:00.127Z,55.80
2023-12-29T06:55:00.272Z,53.82
2023-12-29T06:56:00.210Z,55.51
2023-12-29T06:57:00.238Z,52.38
2023-12-29T06:58:00.598Z,54.41
2023-12-29T06:59:00.356Z,52.15
2023-12-29T07:00:00.390Z,54.54
2023-12-29T07:01:00.562Z,54.41
2023-12-29T07:02:00.554Z,56.64
2023-12-29T07:03:00.594Z,54.32
2023-12-29T07:04:00.652Z,54.52
2023-12-29T07:05:00.823Z,52.09
2023-12-29T07:06:00.736Z,53.77
2023-12-29T07:07:00.923Z,54.59
2023-12-29T07:08:01.157Z,54.50
2023-12-29T07:09:00.909Z,54.16
2023-12-29T07:10:00.954Z,55.39
2023-12-29T07:11:00.997Z,53.87
2023-12-29T07:12:01.063Z,55.15
2023-12-29T07:13:01.216Z,52.05
2023-12-29T07:14:01.158Z,53.58
2023-12-29T07:15:01.209Z,53.26
2023-12-29T07:16:01.301Z,56.21
2023-12-29T07:17:01.315Z,55.02
2023-12-29T07:18:01.788Z,54.60
2023-12-29T07:19:01.632Z,55.13
2023-12-29T07:20:01.484Z,53.99
2023-12-29T07:21:01.533Z,53.59
2023-12-29T07:22:01.607Z,53.52
2023-12-29T07:23:01.668Z,52.17
2023-12-29T07:24:01.697Z,54.32
2023-12-29T07:25:01.859Z,53.01
2023-12-29T07:26:01.852Z,53.40
2023-12-29T07:27:01.881Z,53.73
2023-12-29T07:28:02.288Z,54.77
2023-12-29T07:29:01.978Z,54.79
2023-12-29T07:30:02.063Z,53.84
2023-12-29T07:31:02.193Z,53.21
2023-12-29T07:32:02.126Z,53.32
2023-12-29T07:33:02.237Z,53.32
2023-12-29T07:34:02.343Z,53.02
2023-12-29T07:35:02.396Z,55.22
2023-12-29T07:36:02.363Z,50.28
2023-12-29T07:37:02.462Z,50.27
2023-12-29T07:38:02.943Z,53.00
2023-12-29T07:39:02.520Z,53.00
2023-12-29T07:40:02.646Z,52.81
2023-12-29T07:41:02.608Z,54.89
2023-12-29T07:42:04.103Z,54.12
2023-12-29T07:43:02.739Z,54.43
2023-12-29T07:44:02.827Z,54.13
2023-12-29T07:45:02.827Z,54.49
2023-12-29T07:46:02.891Z,54.55
2023-12-29T07:47:02.925Z,51.71
2023-12-29T07:48:03.944Z,54.14
2023-12-29T07:49:03.104Z,55.78
2023-12-29T07:50:03.188Z,53.41
2023-12-29T07:51:03.132Z,52.58
2023-12-29T07:52:03.234Z,55.48
2023-12-29T07:53:03.242Z,54.16
2023-12-29T07:54:03.295Z,54.30
2023-12-29T07:55:03.380Z,55.03
2023-12-29T07:56:03.378Z,55.27
2023-12-29T07:57:03.423Z,55.43
2023-12-29T07:58:03.996Z,55.30
2023-12-29T07:59:03.544Z,54.96
2023-12-29T08:00:03.588Z,55.31
2023-12-29T08:01:03.753Z,54.57
2023-12-29T08:02:03.689Z,54.18
2023-12-29T08:03:03.812Z,54.49
2023-12-29T08:04:03.941Z,55.50
2023-12-29T08:05:03.928Z,55.79
2023-12-29T08:06:04.019Z,54.11
2023-12-29T08:07:04.007Z,55.27
2023-12-29T08:08:04.039Z,55.05
2023-12-29T08:09:04.103Z,52.98
2023-12-29T08:10:04.186Z,54.86
2023-12-29T08:11:04.202Z,55.25
2023-12-29T08:12:04.230Z,54.12
2023-12-29T08:13:04.274Z,55.09
2023-12-29T08:14:04.319Z,55.42
2023-12-29T08:15:04.355Z,55.71
2023-12-29T08:16:04.494Z,54.01
2023-12-29T08:17:04.485Z,53.36
2023-12-29T08:18:04.789Z,55.93
2023-12-29T08:19:04.635Z,54.63
2023-12-29T08:20:04.587Z,52.94
2023-12-29T08:21:04.640Z,52.55
2023-12-29T08:22:04.815Z,56.14
2023-12-29T08:23:04.773Z,53.51
2023-12-29T08:24:04.810Z,53.60
2023-12-29T08:25:04.908Z,55.81
2023-12-29T08:26:04.937Z,54.09
2023-12-29T08:27:04.968Z,53.67
2023-12-29T08:28:05.072Z,53.44
2023-12-29T08:29:05.065Z,52.39
2023-12-29T08:30:05.297Z,56.14
2023-12-29T08:31:05.307Z,53.54
2023-12-29T08:32:05.222Z,56.49
2023-12-29T08:33:05.362Z,53.56
2023-12-29T08:34:05.389Z,55.58
2023-12-29T08:35:05.475Z,56.07
2023-12-29T08:36:05.476Z,55.36
2023-12-29T08:37:05.548Z,54.44
2023-12-29T08:38:05.530Z,56.01
2023-12-29T08:39:05.561Z,56.69
2023-12-29T08:40:05.689Z,54.37
2023-12-29T08:41:05.696Z,53.79
2023-12-29T08:42:05.761Z,54.49
2023-12-29T08:43:05.892Z,56.70
2023-12-29T08:44:05.831Z,55.37
2023-12-29T08:45:07.138Z,51.95
2023-12-29T08:46:05.951Z,56.04
2023-12-29T08:47:05.973Z,52.47
2023-12-29T08:48:06.610Z,55.23
2023-12-29T08:49:06.142Z,53.89
2023-12-29T08:50:06.108Z,54.87
2023-12-29T08:51:06.182Z,55.06
2023-12-29T08:52:06.342Z,53.94
2023-12-29T08:53:06.249Z,52.28
2023-12-29T08:54:06.294Z,54.50
2023-12-29T08:55:06.365Z,53.47
2023-12-29T08:56:06.401Z,54.30
2023-12-29T08:57:06.449Z,55.03
2023-12-29T08:58:06.549Z,54.05
2023-12-29T08:59:06.547Z,55.42
2023-12-29T09:00:06.615Z,57.16
2023-12-29T09:01:06.752Z,55.16
2023-12-29T09:02:06.710Z,54.39
2023-12-29T09:03:06.763Z,53.71
2023-12-29T09:04:06.856Z,53.58
2023-12-29T09:05:06.993Z,52.96
2023-12-29T09:06:06.963Z,54.08
2023-12-29T09:07:07.100Z,54.87
2023-12-29T09:08:07.027Z,54.51
2023-12-29T09:09:07.092Z,53.33
2023-12-29T09:10:07.169Z,54.21
2023-12-29T09:11:07.190Z,55.23
2023-12-29T09:12:07.242Z,55.93
2023-12-29T09:13:07.354Z,55.19
2023-12-29T09:14:07.364Z,56.63
2023-12-29T09:15:07.362Z,56.92
2023-12-29T09:16:07.380Z,55.08
2023-12-29T09:17:07.465Z,52.06
2023-12-29T09:18:07.774Z,54.83
2023-12-29T09:19:22.198Z,54.46
2023-12-29T09:20:10.952Z,54.49
2023-12-29T09:21:07.605Z,54.54
2023-12-29T09:22:07.616Z,54.80
2023-12-29T09:23:07.625Z,54.92
2023-12-29T09:24:07.573Z,55.34
2023-12-29T09:25:07.676Z,56.48
2023-12-29T09:26:07.638Z,56.17
2023-12-29T09:27:08.201Z,52.64
2023-12-29T09:28:07.600Z,54.57
2023-12-29T09:29:07.572Z,54.51
2023-12-29T09:30:07.648Z,55.35
2023-12-29T09:31:07.684Z,54.73
2023-12-29T09:32:07.578Z,53.05
2023-12-29T09:33:07.668Z,55.70
2023-12-29T09:34:07.926Z,53.52
2023-12-29T09:35:07.597Z,55.87
2023-12-29T09:36:07.587Z,54.24
2023-12-29T09:37:07.624Z,55.60
2023-12-29T09:38:07.601Z,54.86
2023-12-29T09:39:07.603Z,55.46
2023-12-29T09:40:07.614Z,51.82
2023-12-29T09:41:07.589Z,53.99
2023-12-29T09:42:07.564Z,54.15
2023-12-29T09:43:07.623Z,54.27
2023-12-29T09:44:07.580Z,52.60
2023-12-29T09:45:07.609Z,54.87
2023-12-29T09:46:07.659Z,54.79
2023-12-29T09:47:07.626Z,56.74
2023-12-29T09:48:07.884Z,54.04
2023-12-29T09:49:07.694Z,56.80
2023-12-29T09:50:07.820Z,53.75
2023-12-29T09:51:08.224Z,54.62
2023-12-29T09:52:07.849Z,54.99
2023-12-29T09:53:07.854Z,56.24
2023-12-29T09:54:08.197Z,54.00
2023-12-29T09:55:08.023Z,54.81
2023-12-29T09:56:08.033Z,56.03
2023-12-29T09:57:08.067Z,56.64
2023-12-29T09:58:08.144Z,53.90
2023-12-29T09:59:08.195Z,54.19
2023-12-29T10:00:08.243Z,55.92
2023-12-29T10:01:08.399Z,53.62
2023-12-29T10:02:08.342Z,57.61
2023-12-29T10:03:08.384Z,54.84
2023-12-29T10:04:08.549Z,53.45
2023-12-29T10:05:08.576Z,54.57
2023-12-29T10:06:08.656Z,53.91
2023-12-29T10:07:08.666Z,55.14
2023-12-29T10:08:08.665Z,55.22
2023-12-29T10:09:08.667Z,54.04
2023-12-29T10:10:08.853Z,55.84
2023-12-29T10:11:08.807Z,56.07
2023-12-29T10:12:08.836Z,55.40
2023-12-29T10:13:08.918Z,55.10
2023-12-29T10:14:08.978Z,55.04
2023-12-29T10:15:09.053Z,55.17
2023-12-29T10:16:09.184Z,56.87
2023-12-29T10:17:09.102Z,55.06
2023-12-29T10:18:09.271Z,53.51
2023-12-29T10:19:09.286Z,55.56
2023-12-29T10:20:09.231Z,56.24
2023-12-29T10:21:09.301Z,55.44
2023-12-29T10:22:09.435Z,56.37
2023-12-29T10:23:09.411Z,55.26
2023-12-29T10:24:10.522Z,56.46
2023-12-29T10:25:09.510Z,56.56
2023-12-29T10:26:09.669Z,55.42
2023-12-29T10:27:09.608Z,54.97
2023-12-29T10:28:09.661Z,54.34
2023-12-29T10:29:09.682Z,55.50
2023-12-29T10:30:11.526Z,56.28
2023-12-29T10:31:09.815Z,57.07
2023-12-29T10:32:09.840Z,56.20
2023-12-29T10:33:10.004Z,56.42
2023-12-29T10:34:09.900Z,56.02
2023-12-29T10:35:09.761Z,56.46
2023-12-29T10:36:09.791Z,56.87
2023-12-29T10:37:09.778Z,56.09
2023-12-29T10:38:09.766Z,58.05
2023-12-29T10:39:09.740Z,54.30
2023-12-29T10:40:09.821Z,56.70
2023-12-29T10:41:09.750Z,57.23
2023-12-29T10:42:09.744Z,55.46
2023-12-29T10:43:10.038Z,54.42
2023-12-29T10:44:09.848Z,54.84
2023-12-29T10:45:09.785Z,55.18
2023-12-29T10:46:09.841Z,54.26
2023-12-29T10:47:09.793Z,54.98
2023-12-29T10:48:09.838Z,55.34
2023-12-29T10:49:09.811Z,55.58
2023-12-29T10:50:09.820Z,56.16
2023-12-29T10:51:09.742Z,56.48
2023-12-29T10:52:09.767Z,56.18
2023-12-29T10:53:09.756Z,58.43
2023-12-29T10:54:09.756Z,56.83
2023-12-29T10:55:09.856Z,56.33
2023-12-29T10:56:09.750Z,56.54
2023-12-29T10:57:09.751Z,55.80
2023-12-29T10:58:09.834Z,56.56
2023-12-29T10:59:09.750Z,56.61
2023-12-29T11:00:09.756Z,55.24
2023-12-29T11:01:09.800Z,56.61
2023-12-29T11:02:10.140Z,57.92
2023-12-29T11:03:09.814Z,54.14
2023-12-29T11:04:09.801Z,55.53
2023-12-29T11:05:09.897Z,56.29
2023-12-29T11:06:09.768Z,55.25
2023-12-29T11:07:09.811Z,57.54
2023-12-29T11:08:09.773Z,57.70
2023-12-29T11:09:09.774Z,55.49
2023-12-29T11:10:09.920Z,55.54
2023-12-29T11:11:09.775Z,56.49
2023-12-29T11:12:09.835Z,55.89
2023-12-29T11:13:10.267Z,55.15
2023-12-29T11:14:09.956Z,56.00
2023-12-29T11:15:10.010Z,55.93
2023-12-29T11:16:10.102Z,55.93
2023-12-29T11:17:10.118Z,54.61
2023-12-29T11:18:10.283Z,54.66
2023-12-29T11:19:10.298Z,55.38
2023-12-29T11:20:10.333Z,54.15
2023-12-29T11:21:10.371Z,54.19
2023-12-29T11:22:10.451Z,54.59
2023-12-29T11:23:10.467Z,54.13
2023-12-29T11:24:12.077Z,53.76
2023-12-29T11:25:10.533Z,53.73
2023-12-29T11:26:10.512Z,54.57
2023-12-29T11:27:10.508Z,53.97
2023-12-29T11:28:10.569Z,54.43
2023-12-29T11:29:10.511Z,54.04
2023-12-29T11:30:12.435Z,55.29
2023-12-29T11:31:10.621Z,52.23
2023-12-29T11:32:10.501Z,54.50
2023-12-29T11:33:10.628Z,55.06
2023-12-29T11:34:10.559Z,55.06
2023-12-29T11:35:10.502Z,53.29
2023-12-29T11:36:16.840Z,56.09
2023-12-29T11:37:11.504Z,56.13
2023-12-29T11:38:10.513Z,56.23
2023-12-29T11:39:10.502Z,56.49
2023-12-29T11:40:10.628Z,55.53
2023-12-29T11:41:10.497Z,56.33
2023-12-29T11:42:10.515Z,54.99
2023-12-29T11:43:10.620Z,56.33
2023-12-29T11:44:10.532Z,54.46
2023-12-29T11:45:10.496Z,52.99
2023-12-29T11:46:10.530Z,53.99
2023-12-29T11:47:10.492Z,55.68
2023-12-29T11:48:10.552Z,58.08
2023-12-29T11:49:10.883Z,55.31
2023-12-29T11:50:10.594Z,54.97
2023-12-29T11:51:10.653Z,57.10
2023-12-29T11:52:10.756Z,56.66
2023-12-29T11:53:10.771Z,55.54
2023-12-29T11:54:11.242Z,57.04
2023-12-29T11:55:11.140Z,56.69
2023-12-29T11:56:10.906Z,56.03
2023-12-29T11:57:10.948Z,55.86
2023-12-29T11:58:11.200Z,57.13
2023-12-29T11:59:11.050Z,55.80
2023-12-29T12:00:11.193Z,56.01
2023-12-29T12:01:11.190Z,53.20
2023-12-29T12:02:11.275Z,56.47
2023-12-29T12:03:11.272Z,56.84
2023-12-29T12:04:11.342Z,56.14
2023-12-29T12:05:11.381Z,55.49
2023-12-29T12:06:11.444Z,57.49
2023-12-29T12:07:11.504Z,57.39
2023-12-29T12:08:11.530Z,56.83
2023-12-29T12:09:11.625Z,56.00
2023-12-29T12:10:11.787Z,56.70
2023-12-29T12:11:11.712Z,55.69
2023-12-29T12:12:11.793Z,54.19
2023-12-29T12:13:11.874Z,56.42
2023-12-29T12:14:11.908Z,56.30
2023-12-29T12:15:12.768Z,55.47
2023-12-29T12:16:12.044Z,54.44
2023-12-29T12:17:12.046Z,55.91
2023-12-29T12:18:12.161Z,55.08
2023-12-29T12:19:12.220Z,55.11
2023-12-29T12:20:12.334Z,55.18
2023-12-29T12:21:12.242Z,56.49
2023-12-29T12:22:12.341Z,55.87
2023-12-29T12:23:12.345Z,54.92
2023-12-29T12:24:12.398Z,55.43
2023-12-29T12:25:12.460Z,57.00
2023-12-29T12:26:12.481Z,55.41
2023-12-29T12:27:12.543Z,57.23
2023-12-29T12:28:12.634Z,53.41
2023-12-29T12:29:12.647Z,53.84
2023-12-29T12:30:12.767Z,54.16
2023-12-29T12:31:12.814Z,57.44
2023-12-29T12:32:12.767Z,55.21
2023-12-29T12:33:13.168Z,57.61
2023-12-29T12:34:12.963Z,56.90
2023-12-29T12:35:13.761Z,57.01
2023-12-29T12:36:12.988Z,55.63
2023-12-29T12:37:13.056Z,58.83
2023-12-29T12:38:13.083Z,56.90
2023-12-29T12:39:13.109Z,56.60
2023-12-29T12:40:13.214Z,56.40
2023-12-29T12:41:15.569Z,57.32
2023-12-29T12:42:13.314Z,56.76
2023-12-29T12:43:13.278Z,57.80
2023-12-29T12:44:13.218Z,58.36
2023-12-29T12:45:13.210Z,55.40
2023-12-29T12:46:13.245Z,55.94
2023-12-29T12:47:14.531Z,55.31
2023-12-29T12:48:13.236Z,55.35
2023-12-29T12:49:13.388Z,55.45
2023-12-29T12:50:13.198Z,56.73
2023-12-29T12:51:13.215Z,56.67
2023-12-29T12:52:13.247Z,57.63
2023-12-29T12:53:13.225Z,57.70